createdAt,value
2022-11-15T00:01:56.563Z,2.27
2022-11-15T00:05:02.027Z,2.25
2022-11-15T00:08:07.802Z,2.18
2022-11-15T00:11:14.672Z,2.20
2022-11-15T00:14:21.373Z,2.28
2022-11-15T00:17:26.971Z,2.34
2022-11-15T00:20:32.621Z,2.30
2022-11-15T00:23:38.439Z,2.23
2022-11-15T00:26:44.068Z,2.20
2022-11-15T00:29:51.190Z,2.41
2022-11-15T00:32:56.786Z,2.37
2022-11-15T00:36:03.601Z,2.36
2022-11-15T00:39:09.360Z,2.33
2022-11-15T00:42:15.176Z,2.38
2022-11-15T00:45:23.130Z,2.43
2022-11-15T00:48:28.847Z,2.44
2022-11-15T00:51:34.159Z,2.46
2022-11-15T00:54:39.822Z,2.36
2022-11-15T00:57:45.712Z,2.48
2022-11-15T01:00:52.703Z,2.22
2022-11-15T01:04:01.310Z,2.41
2022-11-15T01:07:06.952Z,2.37
2022-11-15T01:10:12.607Z,1.91
2022-11-15T01:13:18.149Z,2.35
2022-11-15T01:16:25.464Z,2.37
2022-11-15T01:19:31.173Z,2.33
2022-11-15T01:22:36.613Z,2.38
2022-11-15T01:25:42.287Z,2.45
2022-11-15T01:28:48.083Z,2.37
2022-11-15T01:31:59.460Z,2.38
2022-11-15T01:35:06.239Z,2.40
2022-11-15T01:38:11.964Z,2.37
2022-11-15T01:41:19.924Z,2.29
2022-11-15T01:44:41.804Z,2.27
2022-11-15T01:47:54.422Z,2.27
2022-11-15T01:51:00.457Z,2.31
2022-11-15T01:54:10.536Z,2.32
2022-11-15T01:57:16.376Z,2.28
2022-11-15T02:00:22.274Z,2.27
2022-11-15T02:03:36.278Z,2.28
2022-11-15T02:06:43.241Z,2.34
2022-11-15T02:09:49.077Z,2.26
2022-11-15T02:12:56.380Z,2.23
2022-11-15T02:16:11.348Z,2.30
2022-11-15T02:19:31.815Z,2.39
2022-11-15T02:22:52.087Z,2.33
2022-11-15T02:26:19.335Z,2.57
2022-11-15T02:29:37.628Z,2.32
2022-11-15T02:32:50.005Z,2.57
2022-11-15T02:36:02.114Z,2.67
2022-11-15T02:39:13.158Z,2.64
2022-11-15T02:42:41.441Z,2.62
2022-11-15T02:45:50.669Z,2.52
2022-11-15T02:48:58.254Z,2.45
2022-11-15T02:52:04.275Z,2.43
2022-11-15T02:55:28.622Z,2.47
2022-11-15T02:58:59.470Z,2.47
2022-11-15T03:02:18.872Z,2.48
2022-11-15T03:05:31.889Z,2.58
2022-11-15T03:08:48.102Z,2.74
2022-11-15T03:12:01.343Z,2.80
2022-11-15T03:15:13.102Z,2.79
2022-11-15T03:18:23.732Z,2.75
2022-11-15T03:21:33.712Z,2.84
2022-11-15T03:24:40.933Z,2.87
2022-11-15T03:27:51.714Z,2.83
2022-11-15T03:30:58.932Z,2.84
2022-11-15T03:34:09.771Z,2.94
2022-11-15T03:37:18.496Z,2.90
2022-11-15T03:40:39.215Z,2.89
2022-11-15T03:43:53.048Z,2.89
2022-11-15T03:47:05.610Z,2.80
2022-11-15T03:50:14.624Z,2.77
2022-11-15T03:53:21.629Z,2.66
2022-11-15T03:56:27.078Z,2.63
2022-11-15T03:59:32.190Z,2.56
2022-11-15T04:02:37.399Z,2.61
2022-11-15T04:05:42.753Z,2.84
2022-11-15T04:08:49.428Z,2.88
2022-11-15T04:11:55.550Z,2.82
2022-11-15T04:15:09.559Z,2.85
2022-11-15T04:18:15.186Z,2.90
2022-11-15T04:21:38.087Z,2.80
2022-11-15T04:24:45.355Z,2.71
2022-11-15T04:27:50.868Z,2.77
2022-11-15T04:30:56.700Z,2.72
2022-11-15T04:34:02.399Z,2.84
2022-11-15T04:37:17.218Z,2.84
2022-11-15T04:40:24.288Z,2.64
2022-11-15T04:43:30.422Z,2.68
2022-11-15T04:46:38.431Z,2.66
2022-11-15T04:49:45.117Z,2.71
2022-11-15T04:52:54.045Z,2.85
2022-11-15T04:56:00.701Z,2.99
2022-11-15T04:59:06.660Z,3.08
2022-11-15T05:02:12.632Z,3.14
2022-11-15T05:05:20.115Z,3.11
2022-11-15T05:08:26.179Z,3.12
2022-11-15T05:11:33.651Z,3.06
2022-11-15T05:14:41.271Z,3.28
2022-11-15T05:17:50.458Z,3.24
2022-11-15T05:20:56.067Z,3.28
2022-11-15T05:24:01.948Z,3.18
2022-11-15T05:27:08.811Z,3.02
2022-11-15T05:30:14.803Z,2.94
2022-11-15T05:33:20.750Z,2.77
2022-11-15T05:36:33.816Z,2.56
2022-11-15T05:39:39.404Z,2.49
2022-11-15T05:42:47.764Z,2.48
2022-11-15T05:45:53.364Z,2.34
2022-11-15T05:48:59.936Z,2.34
2022-11-15T05:52:09.349Z,2.41
2022-11-15T05:55:15.962Z,2.33
2022-11-15T05:58:22.940Z,2.25
2022-11-15T06:01:29.338Z,2.21
2022-11-15T06:04:34.769Z,2.20
2022-11-15T06:07:40.373Z,2.23
2022-11-15T06:10:45.902Z,2.29
2022-11-15T06:13:53.294Z,2.16
2022-11-15T06:16:59.007Z,2.12
2022-11-15T06:20:05.499Z,2.09
2022-11-15T06:23:11.171Z,2.15
2022-11-15T06:26:16.544Z,2.25
2022-11-15T06:29:29.763Z,2.35
2022-11-15T06:32:35.885Z,2.32
2022-11-15T06:35:44.550Z,2.26
2022-11-15T06:38:50.436Z,2.20
2022-11-15T06:41:57.495Z,2.26
2022-11-15T06:45:05.070Z,2.32
2022-11-15T06:48:10.724Z,2.39
2022-11-15T06:51:16.361Z,2.37
2022-11-15T06:54:23.425Z,2.35
2022-11-15T06:57:28.875Z,2.48
2022-11-15T07:00:35.883Z,2.46
2022-11-15T07:03:43.460Z,2.45
2022-11-15T07:06:49.586Z,2.48
2022-11-15T07:09:54.710Z,2.48
2022-11-15T07:13:00.287Z,2.51
2022-11-15T07:16:09.791Z,2.66
2022-11-15T07:19:15.457Z,2.70
2022-11-15T07:22:21.065Z,2.77
2022-11-15T07:25:26.789Z,2.83
2022-11-15T07:28:32.560Z,2.90
2022-11-15T07:31:40.067Z,2.99
2022-11-15T07:34:47.702Z,3.07
2022-11-15T07:37:57.643Z,3.10
2022-11-15T07:41:05.041Z,3.17
2022-11-15T07:44:10.515Z,3.22
2022-11-15T07:47:17.607Z,3.27
2022-11-15T07:50:23.817Z,3.34
2022-11-15T07:53:29.744Z,3.40
2022-11-15T07:56:35.428Z,3.51
2022-11-15T07:59:41.035Z,3.65
2022-11-15T08:02:48.268Z,3.85
2022-11-15T08:05:54.062Z,4.03
2022-11-15T08:08:59.521Z,4.17
2022-11-15T08:12:04.892Z,4.25
2022-11-15T08:15:11.399Z,4.30
2022-11-15T08:18:18.765Z,4.34
2022-11-15T08:21:24.966Z,4.53
2022-11-15T08:24:30.398Z,4.70
2022-11-15T08:27:36.275Z,4.79
2022-11-15T08:30:46.475Z,4.91
2022-11-15T08:33:53.640Z,5.12
2022-11-15T08:36:59.544Z,5.10
2022-11-15T08:40:06.147Z,5.19
2022-11-15T08:43:11.563Z,5.26
2022-11-15T08:46:17.734Z,5.37
2022-11-15T08:49:24.526Z,5.42
2022-11-15T08:52:30.155Z,5.49
2022-11-15T08:55:38.583Z,5.55
2022-11-15T08:58:44.714Z,5.72
2022-11-15T09:01:50.229Z,5.83
2022-11-15T09:04:57.399Z,5.91
2022-11-15T09:08:18.790Z,6.01
2022-11-15T09:11:28.475Z,6.41
2022-11-15T09:14:34.593Z,6.64
2022-11-15T09:17:40.261Z,6.79
2022-11-15T09:20:47.130Z,6.83
2022-11-15T09:23:53.982Z,6.94
2022-11-15T09:26:59.854Z,7.03
2022-11-15T09:30:06.735Z,7.22
2022-11-15T09:33:14.181Z,7.38
2022-11-15T09:36:20.942Z,7.58
2022-11-15T09:39:26.235Z,7.61
2022-11-15T09:42:47.722Z,7.73
2022-11-15T09:46:04.139Z,7.91
2022-11-15T09:49:14.241Z,7.93
2022-11-15T09:52:15.677Z,8.04
2022-11-15T09:55:02.359Z,8.16
2022-11-15T09:57:54.394Z,8.28
2022-11-15T10:00:47.190Z,8.35
2022-11-15T10:03:37.544Z,8.32
2022-11-15T10:06:26.874Z,8.34
2022-11-15T10:09:23.850Z,8.45
2022-11-15T10:12:11.866Z,8.48
2022-11-15T10:15:03.272Z,8.48
2022-11-15T10:18:20.155Z,8.73
2022-11-15T10:21:17.604Z,8.85
2022-11-15T10:24:04.144Z,8.98
2022-11-15T10:26:57.335Z,9.23
2022-11-15T10:29:46.577Z,9.52
2022-11-15T10:32:38.328Z,9.79
2022-11-15T10:35:27.930Z,10.20
2022-11-15T10:38:14.903Z,10.40
2022-11-15T10:41:09.971Z,10.72
2022-11-15T10:44:26.821Z,10.61
2022-11-15T10:47:28.818Z,10.52
2022-11-15T10:50:30.163Z,10.31
2022-11-15T10:53:23.265Z,10.39
2022-11-15T10:56:14.459Z,10.17
2022-11-15T10:59:00.961Z,10.14
2022-11-15T11:01:50.391Z,10.03
2022-11-15T11:04:51.977Z,9.86
2022-11-15T11:07:38.990Z,9.91
2022-11-15T11:13:33.701Z,10.02
2022-11-15T11:16:39.139Z,9.94
2022-11-15T11:19:51.990Z,10.01
2022-11-15T11:22:50.392Z,9.94
2022-11-15T11:25:42.091Z,9.89
2022-11-15T11:28:43.526Z,9.90
2022-11-15T11:31:38.087Z,10.05
2022-11-15T11:34:38.901Z,10.22
2022-11-15T11:37:36.132Z,10.42
2022-11-15T11:40:31.939Z,10.56
2022-11-15T11:43:29.059Z,10.54
2022-11-15T11:46:29.358Z,10.50
2022-11-15T11:49:22.710Z,10.57
2022-11-15T11:52:18.067Z,10.65
2022-11-15T11:55:16.838Z,10.68
2022-11-15T11:58:13.524Z,10.73
2022-11-15T12:01:12.520Z,10.77
2022-11-15T12:04:03.599Z,10.70
2022-11-15T12:06:54.505Z,10.80
2022-11-15T12:09:46.612Z,10.95
2022-11-15T12:12:43.597Z,10.88
2022-11-15T12:15:35.425Z,10.88
2022-11-15T12:18:22.070Z,10.86
2022-11-15T12:21:28.109Z,10.79
2022-11-15T12:24:22.137Z,10.82
2022-11-15T12:27:21.940Z,10.73
2022-11-15T12:30:16.539Z,10.76
2022-11-15T12:33:03.939Z,10.74
2022-11-15T12:36:00.446Z,10.86
2022-11-15T12:38:59.198Z,10.74
2022-11-15T12:42:41.500Z,10.77
2022-11-15T12:45:32.467Z,10.72
2022-11-15T12:48:47.560Z,10.78
2022-11-15T12:52:09.064Z,10.66
2022-11-15T12:55:01.317Z,10.71
2022-11-15T12:57:48.041Z,10.66
2022-11-15T13:00:48.346Z,10.66
2022-11-15T13:03:35.777Z,10.65
2022-11-15T13:06:42.076Z,10.61
2022-11-15T13:09:57.321Z,10.54
2022-11-15T13:12:56.266Z,10.60
2022-11-15T13:15:57.993Z,10.66
2022-11-15T13:18:44.561Z,10.47
2022-11-15T13:21:48.787Z,10.44
2022-11-15T13:24:35.475Z,10.42
2022-11-15T13:27:22.777Z,10.36
2022-11-15T13:30:18.009Z,10.41
2022-11-15T13:33:12.968Z,10.29
2022-11-15T13:36:03.095Z,10.26
2022-11-15T13:38:58.879Z,10.28
2022-11-15T13:41:50.227Z,10.18
2022-11-15T13:44:36.889Z,10.39
2022-11-15T13:47:23.702Z,10.35
2022-11-15T13:50:14.900Z,10.21
2022-11-15T13:53:05.200Z,10.34
2022-11-15T13:55:53.620Z,10.16
2022-11-15T13:58:41.376Z,10.24
2022-11-15T14:01:34.092Z,10.25
2022-11-15T14:04:23.748Z,10.16
2022-11-15T14:07:19.293Z,9.90
2022-11-15T14:10:26.833Z,9.79
2022-11-15T14:13:29.894Z,9.63
2022-11-15T14:16:19.818Z,9.16
2022-11-15T14:19:08.079Z,9.25
2022-11-15T14:22:12.491Z,9.28
2022-11-15T14:25:18.890Z,9.18
2022-11-15T14:28:18.261Z,8.96
2022-11-15T14:31:12.836Z,8.79
2022-11-15T14:33:59.605Z,8.77
2022-11-15T14:36:46.371Z,8.59
2022-11-15T14:39:33.184Z,8.32
2022-11-15T14:42:22.523Z,8.11
2022-11-15T14:45:14.204Z,8.02
2022-11-15T14:48:01.054Z,7.89
2022-11-15T14:50:47.842Z,7.62
2022-11-15T14:53:34.742Z,7.40
2022-11-15T14:56:21.486Z,7.22
2022-11-15T14:59:09.604Z,7.26
2022-11-15T15:01:56.511Z,7.06
2022-11-15T15:04:42.962Z,6.84
2022-11-15T15:07:29.974Z,6.98
2022-11-15T15:10:39.022Z,7.05
2022-11-15T15:13:26.402Z,6.88
2022-11-15T15:16:14.718Z,6.66
2022-11-15T15:19:01.379Z,6.58
2022-11-15T15:21:48.098Z,6.42
2022-11-15T15:24:34.725Z,6.34
2022-11-15T15:27:22.271Z,6.23
2022-11-15T15:30:10.625Z,6.14
2022-11-15T15:33:00.960Z,6.10
2022-11-15T15:35:47.517Z,6.03
2022-11-15T15:38:34.937Z,6.08
2022-11-15T15:41:22.360Z,5.88
2022-11-15T15:44:08.988Z,5.75
2022-11-15T15:46:55.529Z,5.70
2022-11-15T15:49:44.816Z,5.58
2022-11-15T15:52:32.604Z,5.51
2022-11-15T15:55:19.158Z,5.46
2022-11-15T15:58:08.099Z,5.52
2022-11-15T16:00:56.757Z,5.22
2022-11-15T16:03:43.340Z,5.46
2022-11-15T16:06:39.747Z,5.41
2022-11-15T16:09:41.558Z,5.40
2022-11-15T16:12:28.368Z,5.42
2022-11-15T16:15:16.730Z,5.61
2022-11-15T16:18:09.118Z,5.66
2022-11-15T16:20:58.261Z,5.73
2022-11-15T16:23:47.700Z,5.68
2022-11-15T16:26:38.158Z,5.71
2022-11-15T16:29:26.301Z,5.93
2022-11-15T16:32:18.946Z,5.78
2022-11-15T16:35:09.628Z,5.78
2022-11-15T16:37:57.948Z,5.89
2022-11-15T16:40:50.631Z,5.83
2022-11-15T16:43:38.233Z,5.91
2022-11-15T16:46:28.166Z,6.03
2022-11-15T16:49:15.578Z,5.96
2022-11-15T16:52:02.432Z,5.99
2022-11-15T16:54:49.195Z,6.03
2022-11-15T16:57:37.632Z,5.95
2022-11-15T17:00:24.247Z,5.93
2022-11-15T17:03:11.155Z,5.98
2022-11-15T17:06:00.639Z,5.88
2022-11-15T17:08:47.452Z,5.82
2022-11-15T17:11:34.575Z,5.99
2022-11-15T17:14:22.873Z,6.11
2022-11-15T17:17:10.866Z,6.04
2022-11-15T17:19:57.718Z,6.08
2022-11-15T17:22:44.470Z,6.14
2022-11-15T17:25:31.129Z,6.28
2022-11-15T17:28:18.360Z,6.19
2022-11-15T17:31:12.822Z,6.24
2022-11-15T17:33:59.643Z,6.15
2022-11-15T17:36:46.494Z,6.28
2022-11-15T17:39:33.991Z,6.31
2022-11-15T17:42:22.119Z,6.29
2022-11-15T17:45:10.636Z,6.26
2022-11-15T17:47:59.785Z,6.14
2022-11-15T17:50:56.217Z,6.29
2022-11-15T17:53:45.118Z,6.28
2022-11-15T17:56:31.806Z,6.18
2022-11-15T17:59:21.400Z,6.19
2022-11-15T18:02:08.692Z,6.27
2022-11-15T18:04:56.818Z,6.34
2022-11-15T18:07:43.755Z,6.29
2022-11-15T18:10:30.594Z,6.24
2022-11-15T18:13:17.167Z,6.30
2022-11-15T18:16:04.710Z,6.38
2022-11-15T18:18:51.200Z,6.33
2022-11-15T18:21:56.388Z,6.26
2022-11-15T18:24:44.911Z,6.31
2022-11-15T18:27:31.759Z,6.36
2022-11-15T18:30:18.651Z,6.33
2022-11-15T18:33:05.211Z,6.36
2022-11-15T18:35:59.282Z,6.34
2022-11-15T18:38:47.698Z,6.22
2022-11-15T18:41:35.833Z,6.13
2022-11-15T18:44:22.562Z,6.02
2022-11-15T18:47:09.474Z,6.18
2022-11-15T18:49:58.470Z,6.16
2022-11-15T18:52:44.857Z,6.05
2022-11-15T18:55:33.044Z,5.98
2022-11-15T18:58:19.797Z,5.97
2022-11-15T19:01:08.181Z,5.93
2022-11-15T19:03:57.759Z,6.00
2022-11-15T19:06:47.097Z,5.62
2022-11-15T19:09:34.924Z,5.97
2022-11-15T19:12:23.170Z,5.99
2022-11-15T19:15:10.685Z,5.94
2022-11-15T19:17:57.096Z,5.92
2022-11-15T19:20:44.041Z,5.98
2022-11-15T19:23:34.716Z,5.91
2022-11-15T19:26:23.828Z,5.78
2022-11-15T19:29:12.215Z,5.84
2022-11-15T19:31:58.629Z,5.89
2022-11-15T19:34:45.740Z,5.88
2022-11-15T19:37:32.477Z,5.82
2022-11-15T19:40:19.396Z,5.80
2022-11-15T19:43:06.174Z,5.86
2022-11-15T19:46:00.952Z,5.80
2022-11-15T19:48:49.797Z,5.69
2022-11-15T19:51:36.778Z,5.77
2022-11-15T19:54:23.326Z,5.76
2022-11-15T19:57:10.205Z,5.68
2022-11-15T19:59:59.196Z,5.79
2022-11-15T20:02:52.524Z,5.73
2022-11-15T20:05:39.312Z,5.75
2022-11-15T20:08:27.292Z,5.69
2022-11-15T20:11:14.638Z,5.73
2022-11-15T20:14:03.009Z,5.69
2022-11-15T20:16:54.053Z,5.62
2022-11-15T20:19:42.210Z,5.73
2022-11-15T20:22:29.007Z,5.64
2022-11-15T20:25:16.525Z,5.67
2022-11-15T20:28:03.039Z,5.75
2022-11-15T20:30:53.312Z,5.65
2022-11-15T20:33:40.146Z,5.68
2022-11-15T20:36:28.970Z,5.70
2022-11-15T20:39:15.435Z,5.70
2022-11-15T20:42:02.103Z,5.57
2022-11-15T20:44:48.834Z,5.66
2022-11-15T20:47:35.668Z,5.76
2022-11-15T20:50:41.764Z,5.75
2022-11-15T20:53:31.606Z,5.78
2022-11-15T20:56:20.931Z,5.71
2022-11-15T20:59:07.765Z,5.71
2022-11-15T21:01:54.561Z,5.69
2022-11-15T21:04:41.400Z,5.79
2022-11-15T21:07:28.348Z,5.69
2022-11-15T21:10:33.730Z,5.79
2022-11-15T21:13:20.573Z,5.71
2022-11-15T21:16:08.085Z,5.75
2022-11-15T21:18:54.982Z,5.75
2022-11-15T21:21:41.931Z,5.64
2022-11-15T21:24:28.655Z,5.74
2022-11-15T21:27:16.555Z,5.85
2022-11-15T21:30:03.484Z,5.77
2022-11-15T21:32:50.070Z,5.68
2022-11-15T21:35:36.890Z,5.66
2022-11-15T21:38:24.737Z,5.82
2022-11-15T21:41:11.527Z,5.89
2022-11-15T21:44:00.562Z,5.96
2022-11-15T21:46:48.751Z,5.87
2022-11-15T21:49:35.860Z,5.91
2022-11-15T21:52:22.634Z,5.91
2022-11-15T21:55:10.444Z,5.77
2022-11-15T21:57:57.726Z,5.86
2022-11-15T22:01:03.697Z,5.89
2022-11-15T22:03:50.388Z,5.82
2022-11-15T22:06:41.120Z,5.85
2022-11-15T22:09:28.567Z,5.88
2022-11-15T22:12:15.180Z,5.83
2022-11-15T22:15:01.972Z,5.93
2022-11-15T22:18:01.863Z,5.89
2022-11-15T22:20:54.675Z,5.57
2022-11-15T22:23:42.528Z,5.90
2022-11-15T22:26:29.045Z,5.79
2022-11-15T22:29:15.775Z,5.79
2022-11-15T22:32:02.531Z,5.75
2022-11-15T22:34:50.607Z,5.67
2022-11-15T22:37:37.483Z,5.73
2022-11-15T22:40:24.546Z,5.63
2022-11-15T22:43:12.960Z,5.64
2022-11-15T22:46:00.747Z,5.60
2022-11-15T22:48:47.342Z,5.56
2022-11-15T22:51:35.787Z,5.52
2022-11-15T22:54:22.245Z,5.51
2022-11-15T22:57:08.951Z,5.50
2022-11-15T22:59:55.755Z,5.41
2022-11-15T23:02:42.635Z,5.42
2022-11-15T23:05:29.661Z,5.37
2022-11-15T23:08:18.447Z,5.27
2022-11-15T23:11:23.292Z,5.34
2022-11-15T23:14:10.657Z,5.42
2022-11-15T23:16:57.042Z,5.37
2022-11-15T23:19:43.917Z,5.34
2022-11-15T23:22:56.384Z,5.24
2022-11-15T23:25:45.398Z,5.32
2022-11-15T23:28:34.602Z,5.24
2022-11-15T23:31:38.609Z,5.20
2022-11-15T23:34:25.870Z,5.13
2022-11-15T23:37:15.231Z,5.18
2022-11-15T23:40:01.871Z,5.02
2022-11-15T23:42:50.049Z,5.04
2022-11-15T23:45:39.003Z,5.06
2022-11-15T23:48:27.564Z,5.04
2022-11-15T23:51:14.556Z,5.01
2022-11-15T23:54:01.223Z,4.96
2022-11-15T23:56:47.923Z,4.94
2022-11-15T23:59:36.184Z,5.01
